Карточка аэропорта UMGG

Внимание!
Информация на этой странице в стадии наполнения.
Если вы не увидели какой-то информации, или заметили неточность - пожалуйста сообщите нам!
Спасибо!
Команда RU-STAFF
Название аэропортаGomel
Название аэропорта (англ.)Gomel
Превышение471 ft. (143.6 m.)
Координаты52°31.614', 31°1.002'
Высота перехода6000 ft
Эшелон переходаQNH>=733mm:FL80; QNH<733mm:FL90
Коды ответчика0030−0032
Зона ОрВДМинск РПИ (UMMV)
Данные METARUMGG 271100Z 17005G08MPS 4000 -SHSN BLSN BR OVC029CB M03/M06 Q1012 NOSIG
Проноз погоды (TAF)UMGG 270457Z 2706/2806 18006MPS 3000 -SN BR OVC006 TEMPO 2706/2715 20006MPS 0800 FZDZ +SHSN BKN003 BKN015CB TEMPO 2715/2724 20007G12MPS 1200 SHSNRA BKN004 BKN015CB BECMG 2800/2802 21006MPS TEMPO 2800/2806 23009G14MPS 1200 SHSNRA BKN004 BKN015CB
NOTAMshow/hide NOTAM
AWOS   TABLE

Информация о ВПП

ВПП Длина ВПП (м.) Покрытие Курс ВПП Частота ILS
102569Цементобетон103109.3
282569Цементобетон283108.7

Диспетчерские позиции

Позывной Наименование органа УВД Частота
UMGG_APPHomiel Approach126.100
UMGG_TWRHomiel Tower118.100



Спутниковое изображение